sensor_id;sensor_type;location;lat;lon;timestamp;pressure;altitude;pressure_sealevel;temperature;humidity
27294;BME280;14785;52.556;13.430;2023-05-22T00:00:30;100979.09;;;21.98;100.00
27294;BME280;14785;52.556;13.430;2023-05-22T00:02:57;100978.03;;;21.75;100.00
27294;BME280;14785;52.556;13.430;2023-05-22T00:05:22;100988.19;;;21.79;100.00
27294;BME280;14785;52.556;13.430;2023-05-22T00:07:47;100978.16;;;21.86;100.00
27294;BME280;14785;52.556;13.430;2023-05-22T00:10:13;100982.81;;;21.97;100.00
27294;BME280;14785;52.556;13.430;2023-05-22T00:12:38;100975.31;;;21.99;100.00
27294;BME280;14785;52.556;13.430;2023-05-22T00:15:04;100981.88;;;21.61;100.00
27294;BME280;14785;52.556;13.430;2023-05-22T00:17:30;100982.56;;;21.81;100.00
27294;BME280;14785;52.556;13.430;2023-05-22T00:19:55;100983.41;;;21.81;100.00
27294;BME280;14785;52.556;13.430;2023-05-22T00:22:26;100970.78;;;21.93;100.00
27294;BME280;14785;52.556;13.430;2023-05-22T00:24:52;100978.34;;;21.60;100.00
27294;BME280;14785;52.556;13.430;2023-05-22T00:27:17;100975.91;;;21.52;100.00
27294;BME280;14785;52.556;13.430;2023-05-22T00:29:43;100974.66;;;21.79;100.00
27294;BME280;14785;52.556;13.430;2023-05-22T00:32:08;100968.44;;;21.72;100.00
27294;BME280;14785;52.556;13.430;2023-05-22T00:34:34;100969.38;;;21.60;100.00
27294;BME280;14785;52.556;13.430;2023-05-22T00:37:00;100966.44;;;21.61;100.00
27294;BME280;14785;52.556;13.430;2023-05-22T00:39:26;100968.56;;;21.59;100.00
27294;BME280;14785;52.556;13.430;2023-05-22T00:41:51;100972.41;;;21.45;100.00
27294;BME280;14785;52.556;13.430;2023-05-22T00:44:16;100963.84;;;21.24;100.00
27294;BME280;14785;52.556;13.430;2023-05-22T00:46:42;100968.31;;;21.36;100.00
27294;BME280;14785;52.556;13.430;2023-05-22T00:49:07;100964.31;;;21.14;100.00
27294;BME280;14785;52.556;13.430;2023-05-22T00:51:33;100964.47;;;21.50;100.00
27294;BME280;14785;52.556;13.430;2023-05-22T00:53:59;100957.41;;;21.49;100.00
27294;BME280;14785;52.556;13.430;2023-05-22T00:56:24;100960.78;;;21.45;100.00
27294;BME280;14785;52.556;13.430;2023-05-22T00:58:51;100958.88;;;21.14;100.00
27294;BME280;14785;52.556;13.430;2023-05-22T01:01:17;100961.78;;;21.19;100.00
27294;BME280;14785;52.556;13.430;2023-05-22T01:03:43;100962.28;;;21.03;100.00
27294;BME280;14785;52.556;13.430;2023-05-22T01:06:13;100952.13;;;20.92;100.00
27294;BME280;14785;52.556;13.430;2023-05-22T01:08:38;100953.50;;;21.08;100.00
27294;BME280;14785;52.556;13.430;2023-05-22T01:11:12;100955.75;;;20.73;100.00
27294;BME280;14785;52.556;13.430;2023-05-22T01:16:48;100954.88;;;20.79;100.00
27294;BME280;14785;52.556;13.430;2023-05-22T01:28:23;100949.47;;;20.79;100.00
27294;BME280;14785;52.556;13.430;2023-05-22T01:31:07;100948.09;;;20.63;100.00
27294;BME280;14785;52.556;13.430;2023-05-22T01:33:45;100942.50;;;20.65;100.00
27294;BME280;14785;52.556;13.430;2023-05-22T01:36:13;100936.25;;;20.64;100.00
27294;BME280;14785;52.556;13.430;2023-05-22T01:38:40;100942.09;;;20.55;100.00
27294;BME280;14785;52.556;13.430;2023-05-22T01:41:06;100934.53;;;20.26;100.00
27294;BME280;14785;52.556;13.430;2023-05-22T01:43:32;100937.94;;;20.59;100.00
27294;BME280;14785;52.556;13.430;2023-05-22T01:45:58;100936.00;;;20.22;100.00
27294;BME280;14785;52.556;13.430;2023-05-22T01:48:25;100935.56;;;20.25;100.00
27294;BME280;14785;52.556;13.430;2023-05-22T01:50:52;100934.34;;;20.08;100.00
27294;BME280;14785;52.556;13.430;2023-05-22T01:53:29;100943.84;;;20.43;100.00
27294;BME280;14785;52.556;13.430;2023-05-22T01:56:15;100944.06;;;20.28;100.00
27294;BME280;14785;52.556;13.430;2023-05-22T02:01:13;100953.88;;;19.97;100.00
27294;BME280;14785;52.556;13.430;2023-05-22T02:03:42;100944.53;;;19.86;100.00
27294;BME280;14785;52.556;13.430;2023-05-22T02:06:12;100944.34;;;19.81;100.00
27294;BME280;14785;52.556;13.430;2023-05-22T02:08:40;100947.84;;;19.82;100.00
27294;BME280;14785;52.556;13.430;2023-05-22T02:11:07;100929.38;;;19.92;100.00
27294;BME280;14785;52.556;13.430;2023-05-22T02:13:33;100933.53;;;19.94;100.00
27294;BME280;14785;52.556;13.430;2023-05-22T02:15:59;100937.84;;;20.28;100.00
27294;BME280;14785;52.556;13.430;2023-05-22T02:18:29;100937.84;;;20.28;100.00
27294;BME280;14785;52.556;13.430;2023-05-22T02:20:58;100942.34;;;20.47;100.00
27294;BME280;14785;52.556;13.430;2023-05-22T02:23:24;100939.16;;;20.63;100.00
27294;BME280;14785;52.556;13.430;2023-05-22T02:25:50;100935.84;;;20.61;100.00
27294;BME280;14785;52.556;13.430;2023-05-22T02:28:15;100936.31;;;20.51;100.00
27294;BME280;14785;52.556;13.430;2023-05-22T02:30:40;100932.03;;;20.31;100.00
27294;BME280;14785;52.556;13.430;2023-05-22T02:33:06;100941.28;;;20.54;100.00
27294;BME280;14785;52.556;13.430;2023-05-22T02:35:34;100945.34;;;20.76;100.00
27294;BME280;14785;52.556;13.430;2023-05-22T02:37:59;100951.75;;;20.38;100.00
27294;BME280;14785;52.556;13.430;2023-05-22T02:40:25;100939.94;;;20.70;100.00
27294;BME280;14785;52.556;13.430;2023-05-22T02:42:50;100942.63;;;20.26;100.00
27294;BME280;14785;52.556;13.430;2023-05-22T02:45:16;100936.97;;;20.40;100.00
27294;BME280;14785;52.556;13.430;2023-05-22T02:47:41;100930.97;;;20.25;100.00
27294;BME280;14785;52.556;13.430;2023-05-22T02:50:07;100938.44;;;20.43;100.00
27294;BME280;14785;52.556;13.430;2023-05-22T02:52:32;100927.72;;;19.78;100.00
27294;BME280;14785;52.556;13.430;2023-05-22T02:54:59;100924.22;;;19.71;100.00
27294;BME280;14785;52.556;13.430;2023-05-22T02:57:24;100928.78;;;19.38;100.00
27294;BME280;14785;52.556;13.430;2023-05-22T02:59:50;100927.28;;;19.22;100.00
27294;BME280;14785;52.556;13.430;2023-05-22T03:02:16;100921.50;;;19.45;100.00
27294;BME280;14785;52.556;13.430;2023-05-22T03:04:42;100921.53;;;19.32;100.00
27294;BME280;14785;52.556;13.430;2023-05-22T03:07:07;100927.47;;;19.21;100.00
27294;BME280;14785;52.556;13.430;2023-05-22T03:09:33;100921.44;;;19.06;100.00
27294;BME280;14785;52.556;13.430;2023-05-22T03:11:58;100912.81;;;19.56;100.00
27294;BME280;14785;52.556;13.430;2023-05-22T03:14:24;100915.69;;;19.22;100.00
27294;BME280;14785;52.556;13.430;2023-05-22T03:16:49;100919.44;;;19.27;100.00
27294;BME280;14785;52.556;13.430;2023-05-22T03:19:15;100912.13;;;19.15;100.00
27294;BME280;14785;52.556;13.430;2023-05-22T03:21:41;100915.22;;;19.12;100.00
27294;BME280;14785;52.556;13.430;2023-05-22T03:24:10;100908.59;;;19.21;100.00
27294;BME280;14785;52.556;13.430;2023-05-22T03:26:36;100904.91;;;19.35;100.00
27294;BME280;14785;52.556;13.430;2023-05-22T03:29:02;100909.50;;;19.28;100.00
27294;BME280;14785;52.556;13.430;2023-05-22T03:31:28;100904.47;;;19.25;100.00
27294;BME280;14785;52.556;13.430;2023-05-22T03:33:55;100907.38;;;19.17;100.00
27294;BME280;14785;52.556;13.430;2023-05-22T03:36:21;100907.78;;;19.01;100.00
27294;BME280;14785;52.556;13.430;2023-05-22T03:38:47;100912.28;;;18.93;100.00
27294;BME280;14785;52.556;13.430;2023-05-22T03:41:12;100906.53;;;19.23;100.00
27294;BME280;14785;52.556;13.430;2023-05-22T03:43:38;100902.78;;;19.11;100.00
27294;BME280;14785;52.556;13.430;2023-05-22T03:46:03;100900.31;;;19.16;100.00
27294;BME280;14785;52.556;13.430;2023-05-22T03:48:29;100907.22;;;19.38;100.00
27294;BME280;14785;52.556;13.430;2023-05-22T03:50:55;100904.88;;;19.02;100.00
27294;BME280;14785;52.556;13.430;2023-05-22T03:53:20;100904.03;;;19.02;100.00
27294;BME280;14785;52.556;13.430;2023-05-22T03:55:46;100896.34;;;19.12;100.00
27294;BME280;14785;52.556;13.430;2023-05-22T03:58:11;100911.28;;;19.01;100.00
27294;BME280;14785;52.556;13.430;2023-05-22T04:00:37;100904.84;;;18.95;100.00
27294;BME280;14785;52.556;13.430;2023-05-22T04:03:02;100903.78;;;18.96;100.00
27294;BME280;14785;52.556;13.430;2023-05-22T04:05:28;100897.38;;;18.98;100.00
27294;BME280;14785;52.556;13.430;2023-05-22T04:07:54;100900.09;;;18.98;100.00
27294;BME280;14785;52.556;13.430;2023-05-22T04:10:20;100902.59;;;19.25;100.00
27294;BME280;14785;52.556;13.430;2023-05-22T04:12:47;100895.13;;;19.14;100.00
27294;BME280;14785;52.556;13.430;2023-05-22T04:15:13;100905.69;;;19.22;100.00
27294;BME280;14785;52.556;13.430;2023-05-22T04:17:39;100901.16;;;19.23;100.00
27294;BME280;14785;52.556;13.430;2023-05-22T04:20:06;100906.13;;;19.26;100.00
27294;BME280;14785;52.556;13.430;2023-05-22T04:22:32;100902.84;;;19.37;100.00
27294;BME280;14785;52.556;13.430;2023-05-22T04:24:57;100895.81;;;19.29;100.00
27294;BME280;14785;52.556;13.430;2023-05-22T04:27:23;100899.50;;;19.22;100.00
27294;BME280;14785;52.556;13.430;2023-05-22T04:29:49;100906.59;;;19.29;100.00
27294;BME280;14785;52.556;13.430;2023-05-22T04:32:15;100902.78;;;19.24;100.00
27294;BME280;14785;52.556;13.430;2023-05-22T04:34:49;100909.41;;;18.88;100.00
27294;BME280;14785;52.556;13.430;2023-05-22T04:37:16;100905.03;;;18.94;100.00
27294;BME280;14785;52.556;13.430;2023-05-22T04:39:43;100896.56;;;19.10;100.00
27294;BME280;14785;52.556;13.430;2023-05-22T04:42:10;100901.94;;;18.84;100.00
27294;BME280;14785;52.556;13.430;2023-05-22T04:44:36;100907.75;;;18.94;100.00
27294;BME280;14785;52.556;13.430;2023-05-22T04:47:02;100904.81;;;18.82;100.00
27294;BME280;14785;52.556;13.430;2023-05-22T04:49:28;100905.72;;;19.16;100.00
27294;BME280;14785;52.556;13.430;2023-05-22T04:51:54;100908.88;;;19.45;100.00
27294;BME280;14785;52.556;13.430;2023-05-22T04:54:22;100900.34;;;19.55;100.00
27294;BME280;14785;52.556;13.430;2023-05-22T04:56:47;100901.56;;;19.65;100.00
27294;BME280;14785;52.556;13.430;2023-05-22T04:59:16;100905.31;;;19.58;100.00
27294;BME280;14785;52.556;13.430;2023-05-22T05:01:43;100909.88;;;19.70;100.00
27294;BME280;14785;52.556;13.430;2023-05-22T05:04:09;100901.19;;;19.62;100.00
27294;BME280;14785;52.556;13.430;2023-05-22T05:06:35;100890.97;;;19.64;100.00
27294;BME280;14785;52.556;13.430;2023-05-22T05:09:05;100897.41;;;19.76;100.00
27294;BME280;14785;52.556;13.430;2023-05-22T05:11:30;100893.09;;;19.62;100.00
27294;BME280;14785;52.556;13.430;2023-05-22T05:13:55;100900.31;;;19.74;100.00
27294;BME280;14785;52.556;13.430;2023-05-22T05:16:21;100903.66;;;19.37;100.00
27294;BME280;14785;52.556;13.430;2023-05-22T05:18:49;100897.47;;;19.37;100.00
27294;BME280;14785;52.556;13.430;2023-05-22T05:21:15;100901.78;;;19.31;100.00
27294;BME280;14785;52.556;13.430;2023-05-22T05:23:41;100897.22;;;19.45;100.00
27294;BME280;14785;52.556;13.430;2023-05-22T05:26:06;100890.34;;;19.75;100.00
27294;BME280;14785;52.556;13.430;2023-05-22T05:28:31;100901.59;;;19.52;100.00
27294;BME280;14785;52.556;13.430;2023-05-22T05:30:57;100904.91;;;19.61;100.00
27294;BME280;14785;52.556;13.430;2023-05-22T05:33:22;100901.13;;;19.88;100.00
27294;BME280;14785;52.556;13.430;2023-05-22T05:35:48;100907.59;;;19.74;100.00
27294;BME280;14785;52.556;13.430;2023-05-22T05:38:14;100902.44;;;19.53;100.00
27294;BME280;14785;52.556;13.430;2023-05-22T05:40:42;100914.47;;;19.57;100.00
27294;BME280;14785;52.556;13.430;2023-05-22T05:43:08;100909.91;;;19.51;100.00
27294;BME280;14785;52.556;13.430;2023-05-22T05:45:33;100905.72;;;19.81;100.00
27294;BME280;14785;52.556;13.430;2023-05-22T05:47:59;100912.59;;;19.70;100.00
27294;BME280;14785;52.556;13.430;2023-05-22T05:50:24;100914.63;;;19.88;100.00
27294;BME280;14785;52.556;13.430;2023-05-22T05:52:50;100908.97;;;20.09;100.00
27294;BME280;14785;52.556;13.430;2023-05-22T05:55:15;100912.75;;;20.14;100.00
27294;BME280;14785;52.556;13.430;2023-05-22T05:57:41;100913.91;;;20.38;100.00
27294;BME280;14785;52.556;13.430;2023-05-22T06:00:07;100912.28;;;20.24;100.00
27294;BME280;14785;52.556;13.430;2023-05-22T06:02:34;100918.94;;;20.28;100.00
27294;BME280;14785;52.556;13.430;2023-05-22T06:05:00;100921.19;;;20.37;100.00
27294;BME280;14785;52.556;13.430;2023-05-22T06:07:26;100916.25;;;20.65;100.00
27294;BME280;14785;52.556;13.430;2023-05-22T06:09:52;100913.56;;;20.21;100.00
27294;BME280;14785;52.556;13.430;2023-05-22T06:12:17;100918.13;;;20.21;100.00
27294;BME280;14785;52.556;13.430;2023-05-22T06:14:43;100914.22;;;20.61;100.00
27294;BME280;14785;52.556;13.430;2023-05-22T06:17:08;100917.34;;;20.58;100.00
27294;BME280;14785;52.556;13.430;2023-05-22T06:19:34;100906.59;;;20.89;100.00
27294;BME280;14785;52.556;13.430;2023-05-22T06:21:59;100918.50;;;20.82;100.00
27294;BME280;14785;52.556;13.430;2023-05-22T06:24:25;100915.69;;;21.01;100.00
27294;BME280;14785;52.556;13.430;2023-05-22T06:26:52;100918.19;;;21.03;100.00
27294;BME280;14785;52.556;13.430;2023-05-22T06:29:17;100907.38;;;21.27;100.00
27294;BME280;14785;52.556;13.430;2023-05-22T06:31:42;100911.41;;;21.18;100.00
27294;BME280;14785;52.556;13.430;2023-05-22T06:34:08;100905.56;;;21.21;100.00
27294;BME280;14785;52.556;13.430;2023-05-22T06:36:33;100911.47;;;21.12;100.00
27294;BME280;14785;52.556;13.430;2023-05-22T06:39:00;100908.53;;;21.13;100.00
27294;BME280;14785;52.556;13.430;2023-05-22T06:41:25;100906.94;;;21.30;100.00
27294;BME280;14785;52.556;13.430;2023-05-22T06:43:51;100905.69;;;21.57;100.00
27294;BME280;14785;52.556;13.430;2023-05-22T06:46:16;100900.97;;;21.71;100.00
27294;BME280;14785;52.556;13.430;2023-05-22T06:48:42;100906.03;;;21.43;100.00
27294;BME280;14785;52.556;13.430;2023-05-22T06:51:08;100899.50;;;21.50;100.00
27294;BME280;14785;52.556;13.430;2023-05-22T06:53:36;100899.31;;;21.45;100.00
27294;BME280;14785;52.556;13.430;2023-05-22T06:56:02;100901.06;;;21.40;100.00
27294;BME280;14785;52.556;13.430;2023-05-22T06:58:27;100903.66;;;21.77;100.00
27294;BME280;14785;52.556;13.430;2023-05-22T07:00:53;100906.84;;;22.10;100.00
27294;BME280;14785;52.556;13.430;2023-05-22T07:03:19;100899.31;;;22.12;100.00
27294;BME280;14785;52.556;13.430;2023-05-22T07:05:45;100899.91;;;22.32;100.00
27294;BME280;14785;52.556;13.430;2023-05-22T07:08:11;100891.94;;;22.01;100.00
27294;BME280;14785;52.556;13.430;2023-05-22T07:10:36;100899.63;;;22.22;100.00
27294;BME280;14785;52.556;13.430;2023-05-22T07:13:02;100896.59;;;21.94;100.00
27294;BME280;14785;52.556;13.430;2023-05-22T07:15:28;100902.34;;;22.40;100.00
27294;BME280;14785;52.556;13.430;2023-05-22T07:17:53;100904.69;;;22.55;100.00
27294;BME280;14785;52.556;13.430;2023-05-22T07:20:18;100907.16;;;22.86;100.00
27294;BME280;14785;52.556;13.430;2023-05-22T07:22:44;100900.66;;;22.39;100.00
27294;BME280;14785;52.556;13.430;2023-05-22T07:25:09;100897.81;;;22.34;100.00
27294;BME280;14785;52.556;13.430;2023-05-22T07:27:35;100895.06;;;22.71;100.00
27294;BME280;14785;52.556;13.430;2023-05-22T07:30:00;100896.31;;;22.20;100.00
27294;BME280;14785;52.556;13.430;2023-05-22T07:32:25;100896.78;;;22.53;100.00
27294;BME280;14785;52.556;13.430;2023-05-22T07:34:51;100896.00;;;22.46;100.00
27294;BME280;14785;52.556;13.430;2023-05-22T07:37:16;100894.72;;;22.49;100.00
27294;BME280;14785;52.556;13.430;2023-05-22T07:39:42;100894.34;;;22.09;100.00
27294;BME280;14785;52.556;13.430;2023-05-22T07:42:10;100897.03;;;22.64;100.00
27294;BME280;14785;52.556;13.430;2023-05-22T07:44:38;100896.31;;;22.86;100.00
27294;BME280;14785;52.556;13.430;2023-05-22T07:47:04;100897.41;;;22.97;100.00
27294;BME280;14785;52.556;13.430;2023-05-22T07:49:29;100901.50;;;22.88;100.00
27294;BME280;14785;52.556;13.430;2023-05-22T07:51:55;100903.31;;;22.94;100.00
27294;BME280;14785;52.556;13.430;2023-05-22T07:54:20;100902.91;;;23.20;100.00
27294;BME280;14785;52.556;13.430;2023-05-22T07:56:45;100898.13;;;23.04;100.00
27294;BME280;14785;52.556;13.430;2023-05-22T07:59:12;100898.88;;;23.11;100.00
27294;BME280;14785;52.556;13.430;2023-05-22T08:01:38;100891.88;;;23.33;100.00
27294;BME280;14785;52.556;13.430;2023-05-22T08:04:04;100892.38;;;23.53;100.00
27294;BME280;14785;52.556;13.430;2023-05-22T08:06:30;100896.84;;;23.82;100.00
27294;BME280;14785;52.556;13.430;2023-05-22T08:08:55;100894.75;;;23.84;100.00
27294;BME280;14785;52.556;13.430;2023-05-22T08:11:21;100892.38;;;23.53;100.00
27294;BME280;14785;52.556;13.430;2023-05-22T08:13:47;100893.56;;;23.91;100.00
27294;BME280;14785;52.556;13.430;2023-05-22T08:16:14;100890.09;;;24.19;100.00
27294;BME280;14785;52.556;13.430;2023-05-22T08:18:39;100894.69;;;24.30;100.00
27294;BME280;14785;52.556;13.430;2023-05-22T08:21:05;100892.56;;;24.32;100.00
27294;BME280;14785;52.556;13.430;2023-05-22T08:23:30;100890.09;;;24.30;100.00
27294;BME280;14785;52.556;13.430;2023-05-22T08:25:56;100895.41;;;24.25;100.00
27294;BME280;14785;52.556;13.430;2023-05-22T08:28:22;100888.41;;;24.41;100.00
27294;BME280;14785;52.556;13.430;2023-05-22T08:30:47;100884.41;;;24.32;100.00
27294;BME280;14785;52.556;13.430;2023-05-22T08:33:13;100886.84;;;24.45;100.00
27294;BME280;14785;52.556;13.430;2023-05-22T08:35:38;100881.38;;;24.05;100.00
27294;BME280;14785;52.556;13.430;2023-05-22T08:38:04;100882.81;;;24.48;100.00
27294;BME280;14785;52.556;13.430;2023-05-22T08:40:36;100875.00;;;24.51;100.00
27294;BME280;14785;52.556;13.430;2023-05-22T08:43:03;100877.13;;;24.49;100.00
27294;BME280;14785;52.556;13.430;2023-05-22T08:45:29;100878.31;;;25.09;100.00
27294;BME280;14785;52.556;13.430;2023-05-22T08:47:58;100881.94;;;25.31;100.00
27294;BME280;14785;52.556;13.430;2023-05-22T08:50:24;100876.88;;;25.51;100.00
27294;BME280;14785;52.556;13.430;2023-05-22T08:52:51;100876.25;;;25.82;100.00
27294;BME280;14785;52.556;13.430;2023-05-22T08:55:17;100883.97;;;25.36;100.00
27294;BME280;14785;52.556;13.430;2023-05-22T08:57:44;100874.09;;;25.84;100.00
27294;BME280;14785;52.556;13.430;2023-05-22T09:00:10;100872.75;;;25.32;100.00
27294;BME280;14785;52.556;13.430;2023-05-22T09:02:39;100858.53;;;25.30;100.00
27294;BME280;14785;52.556;13.430;2023-05-22T09:05:07;100863.09;;;25.41;100.00
27294;BME280;14785;52.556;13.430;2023-05-22T09:07:34;100852.59;;;25.50;100.00
27294;BME280;14785;52.556;13.430;2023-05-22T09:10:00;100843.97;;;25.74;100.00
27294;BME280;14785;52.556;13.430;2023-05-22T09:12:30;100852.72;;;25.76;99.13
27294;BME280;14785;52.556;13.430;2023-05-22T09:15:06;100853.81;;;25.75;98.36
27294;BME280;14785;52.556;13.430;2023-05-22T09:17:32;100854.38;;;26.16;96.49
27294;BME280;14785;52.556;13.430;2023-05-22T09:19:58;100850.91;;;26.42;95.02
27294;BME280;14785;52.556;13.430;2023-05-22T09:22:34;100856.75;;;26.77;93.16
27294;BME280;14785;52.556;13.430;2023-05-22T09:25:00;100852.97;;;26.56;93.43
27294;BME280;14785;52.556;13.430;2023-05-22T09:27:25;100850.91;;;26.42;93.53
27294;BME280;14785;52.556;13.430;2023-05-22T09:29:53;100842.53;;;26.27;95.36
27294;BME280;14785;52.556;13.430;2023-05-22T09:32:19;100838.75;;;26.54;92.73
27294;BME280;14785;52.556;13.430;2023-05-22T09:34:45;100837.69;;;26.34;94.50
27294;BME280;14785;52.556;13.430;2023-05-22T09:37:15;100838.63;;;26.66;92.93
27294;BME280;14785;52.556;13.430;2023-05-22T09:39:45;100835.91;;;26.23;94.43
27294;BME280;14785;52.556;13.430;2023-05-22T09:42:14;100841.59;;;26.16;94.46
27294;BME280;14785;52.556;13.430;2023-05-22T09:44:41;100843.38;;;26.54;92.42
27294;BME280;14785;52.556;13.430;2023-05-22T09:47:08;100838.06;;;26.64;95.33
27294;BME280;14785;52.556;13.430;2023-05-22T09:49:44;100838.75;;;26.81;91.77
27294;BME280;14785;52.556;13.430;2023-05-22T09:52:11;100839.25;;;26.73;90.42
27294;BME280;14785;52.556;13.430;2023-05-22T09:54:50;100838.25;;;26.84;88.96
27294;BME280;14785;52.556;13.430;2023-05-22T09:57:24;100835.28;;;27.48;87.80
27294;BME280;14785;52.556;13.430;2023-05-22T09:59:54;100829.44;;;27.35;86.01
27294;BME280;14785;52.556;13.430;2023-05-22T10:02:23;100835.00;;;27.50;85.98
27294;BME280;14785;52.556;13.430;2023-05-22T10:04:50;100827.22;;;27.73;85.84
27294;BME280;14785;52.556;13.430;2023-05-22T10:07:21;100828.03;;;28.11;83.44
27294;BME280;14785;52.556;13.430;2023-05-22T10:09:50;100830.94;;;27.99;82.36
27294;BME280;14785;52.556;13.430;2023-05-22T10:12:19;100833.31;;;27.39;86.93
27294;BME280;14785;52.556;13.430;2023-05-22T10:14:47;100826.13;;;27.69;85.31
27294;BME280;14785;52.556;13.430;2023-05-22T10:17:14;100829.53;;;27.45;85.84
27294;BME280;14785;52.556;13.430;2023-05-22T10:19:41;100831.69;;;27.43;85.72
27294;BME280;14785;52.556;13.430;2023-05-22T10:22:07;100826.00;;;27.96;81.35
27294;BME280;14785;52.556;13.430;2023-05-22T10:24:33;100829.84;;;28.62;79.67
27294;BME280;14785;52.556;13.430;2023-05-22T10:26:58;100831.06;;;28.19;80.12
27294;BME280;14785;52.556;13.430;2023-05-22T10:29:29;100826.75;;;28.33;82.47
27294;BME280;14785;52.556;13.430;2023-05-22T10:34:49;100812.16;;;28.18;77.59
27294;BME280;14785;52.556;13.430;2023-05-22T10:37:30;100814.56;;;28.04;78.52
27294;BME280;14785;52.556;13.430;2023-05-22T10:40:04;100805.81;;;27.97;78.23
27294;BME280;14785;52.556;13.430;2023-05-22T10:42:32;100796.97;;;27.85;80.27
27294;BME280;14785;52.556;13.430;2023-05-22T10:44:59;100799.06;;;27.26;80.01
27294;BME280;14785;52.556;13.430;2023-05-22T10:47:25;100804.31;;;28.41;78.62
27294;BME280;14785;52.556;13.430;2023-05-22T10:50:09;100794.38;;;28.20;76.95
27294;BME280;14785;52.556;13.430;2023-05-22T10:52:35;100793.34;;;27.74;78.04
27294;BME280;14785;52.556;13.430;2023-05-22T10:55:06;100792.66;;;27.99;76.55
27294;BME280;14785;52.556;13.430;2023-05-22T10:57:33;100794.84;;;28.94;71.50
27294;BME280;14785;52.556;13.430;2023-05-22T11:00:11;100778.63;;;29.68;68.04
27294;BME280;14785;52.556;13.430;2023-05-22T11:02:44;100780.06;;;29.35;65.95
27294;BME280;14785;52.556;13.430;2023-05-22T11:07:46;100778.69;;;29.27;66.94
27294;BME280;14785;52.556;13.430;2023-05-22T11:10:11;100781.91;;;29.70;67.16
27294;BME280;14785;52.556;13.430;2023-05-22T11:12:36;100776.22;;;29.26;66.40
27294;BME280;14785;52.556;13.430;2023-05-22T11:15:07;100773.16;;;29.47;64.67
27294;BME280;14785;52.556;13.430;2023-05-22T11:17:40;100767.66;;;29.68;65.82
27294;BME280;14785;52.556;13.430;2023-05-22T11:20:13;100770.44;;;29.32;64.30
27294;BME280;14785;52.556;13.430;2023-05-22T11:22:45;100761.84;;;29.84;61.34
27294;BME280;14785;52.556;13.430;2023-05-22T11:25:18;100758.94;;;29.35;59.17
27294;BME280;14785;52.556;13.430;2023-05-22T11:27:45;100771.00;;;28.99;60.55
27294;BME280;14785;52.556;13.430;2023-05-22T11:30:12;100765.31;;;30.00;58.78
27294;BME280;14785;52.556;13.430;2023-05-22T11:32:39;100767.97;;;30.68;53.51
27294;BME280;14785;52.556;13.430;2023-05-22T11:35:05;100758.94;;;30.19;52.33
27294;BME280;14785;52.556;13.430;2023-05-22T11:37:32;100752.94;;;30.56;55.38
27294;BME280;14785;52.556;13.430;2023-05-22T11:40:03;100768.88;;;30.54;52.09
27294;BME280;14785;52.556;13.430;2023-05-22T11:42:30;100752.69;;;30.04;58.20
27294;BME280;14785;52.556;13.430;2023-05-22T11:44:55;100754.38;;;30.48;54.25
27294;BME280;14785;52.556;13.430;2023-05-22T11:47:21;100748.22;;;30.28;50.97
27294;BME280;14785;52.556;13.430;2023-05-22T11:49:46;100746.53;;;30.32;53.64
27294;BME280;14785;52.556;13.430;2023-05-22T11:52:12;100752.78;;;30.42;49.44
27294;BME280;14785;52.556;13.430;2023-05-22T11:54:37;100750.94;;;30.28;47.85
27294;BME280;14785;52.556;13.430;2023-05-22T11:57:05;100747.88;;;30.78;52.68
27294;BME280;14785;52.556;13.430;2023-05-22T11:59:34;100745.41;;;31.62;47.03
27294;BME280;14785;52.556;13.430;2023-05-22T12:01:59;100748.22;;;30.66;47.28
27294;BME280;14785;52.556;13.430;2023-05-22T12:04:25;100742.94;;;30.36;48.60
27294;BME280;14785;52.556;13.430;2023-05-22T12:06:50;100733.28;;;30.82;45.71
27294;BME280;14785;52.556;13.430;2023-05-22T12:09:16;100741.84;;;30.76;45.24
27294;BME280;14785;52.556;13.430;2023-05-22T12:11:48;100738.94;;;30.91;46.42
27294;BME280;14785;52.556;13.430;2023-05-22T12:14:13;100733.59;;;31.38;44.76
27294;BME280;14785;52.556;13.430;2023-05-22T12:16:39;100730.50;;;31.16;46.41
27294;BME280;14785;52.556;13.430;2023-05-22T12:19:09;100729.91;;;31.19;44.20
27294;BME280;14785;52.556;13.430;2023-05-22T12:21:36;100723.25;;;30.96;43.56
27294;BME280;14785;52.556;13.430;2023-05-22T12:24:02;100725.16;;;31.53;44.25
27294;BME280;14785;52.556;13.430;2023-05-22T12:26:29;100728.13;;;32.59;41.47
27294;BME280;14785;52.556;13.430;2023-05-22T12:28:54;100726.44;;;33.55;38.27
27294;BME280;14785;52.556;13.430;2023-05-22T12:31:21;100727.06;;;32.92;40.78
27294;BME280;14785;52.556;13.430;2023-05-22T12:33:47;100727.06;;;32.74;39.14
27294;BME280;14785;52.556;13.430;2023-05-22T12:36:13;100724.50;;;33.42;40.16
27294;BME280;14785;52.556;13.430;2023-05-22T12:38:39;100724.94;;;32.84;37.07
27294;BME280;14785;52.556;13.430;2023-05-22T12:41:05;100728.25;;;34.13;35.39
27294;BME280;14785;52.556;13.430;2023-05-22T12:43:31;100725.25;;;34.37;33.96
27294;BME280;14785;52.556;13.430;2023-05-22T12:45:57;100712.75;;;33.77;34.79
27294;BME280;14785;52.556;13.430;2023-05-22T12:48:22;100718.03;;;34.94;33.93
27294;BME280;14785;52.556;13.430;2023-05-22T12:50:49;100720.28;;;35.83;34.35